createdAt,value
2019-05-06T00:00:09.015Z,15.37
2019-05-06T00:01:08.975Z,16.22
2019-05-06T00:02:08.938Z,16.98
2019-05-06T00:03:08.891Z,16.22
2019-05-06T00:04:08.847Z,14.80
2019-05-06T00:05:08.804Z,15.94
2019-05-06T00:06:08.760Z,13.57
2019-05-06T00:07:08.718Z,13.57
2019-05-06T00:08:08.676Z,12.15
2019-05-06T00:09:08.635Z,12.15
2019-05-06T00:10:08.595Z,15.66
2019-05-06T00:11:08.550Z,13.66
2019-05-06T00:12:08.509Z,13.09
2019-05-06T00:13:08.467Z,13.57
2019-05-06T00:14:08.428Z,12.81
2019-05-06T00:15:08.384Z,12.90
2019-05-06T00:16:08.340Z,15.18
2019-05-06T00:17:08.300Z,12.43
2019-05-06T00:18:08.251Z,10.63
2019-05-06T00:19:08.210Z,9.01
2019-05-06T00:20:08.170Z,8.92
2019-05-06T00:21:08.131Z,8.82
2019-05-06T00:22:08.090Z,9.30
2019-05-06T00:23:08.048Z,10.53
2019-05-06T00:24:08.002Z,11.19
2019-05-06T00:25:07.961Z,12.34
2019-05-06T00:26:07.929Z,12.24
2019-05-06T00:27:07.881Z,12.05
2019-05-06T00:28:07.836Z,11.29
2019-05-06T00:29:07.790Z,12.99
2019-05-06T00:30:07.747Z,14.51
2019-05-06T00:31:12.867Z,14.32
2019-05-06T00:32:07.665Z,13.09
2019-05-06T00:33:07.626Z,13.28
2019-05-06T00:34:07.583Z,13.38
2019-05-06T00:35:07.540Z,14.70
2019-05-06T00:36:07.497Z,13.66
2019-05-06T00:37:07.456Z,12.81
2019-05-06T00:38:07.415Z,13.66
2019-05-06T00:39:07.367Z,13.38
2019-05-06T00:40:07.326Z,12.52
2019-05-06T00:41:07.285Z,12.34
2019-05-06T00:42:07.247Z,12.24
2019-05-06T00:43:07.198Z,12.15
2019-05-06T00:44:07.158Z,11.29
2019-05-06T00:45:07.119Z,11.10
2019-05-06T00:46:07.078Z,11.19
2019-05-06T00:47:07.039Z,11.19
2019-05-06T00:48:06.992Z,12.24
2019-05-06T00:49:06.951Z,11.95
2019-05-06T00:50:06.904Z,12.81
2019-05-06T00:51:06.862Z,12.62
2019-05-06T00:52:06.823Z,11.10
2019-05-06T00:53:06.784Z,9.96
2019-05-06T00:54:06.753Z,9.67
2019-05-06T00:55:06.699Z,10.15
2019-05-06T00:56:06.653Z,11.38
2019-05-06T00:57:06.610Z,11.67
2019-05-06T00:58:06.567Z,11.48
2019-05-06T00:59:06.533Z,11.86
2019-05-06T01:00:06.484Z,12.15
2019-05-06T01:01:06.440Z,11.10
2019-05-06T01:02:06.399Z,12.24
2019-05-06T01:03:06.355Z,11.29
2019-05-06T01:04:06.316Z,12.15
2019-05-06T01:05:06.280Z,12.05
2019-05-06T01:06:06.234Z,12.99
2019-05-06T01:07:06.193Z,14.14
2019-05-06T01:08:06.148Z,14.04
2019-05-06T01:09:06.103Z,14.70
2019-05-06T01:10:06.061Z,12.99
2019-05-06T01:11:06.019Z,13.19
2019-05-06T01:12:05.976Z,12.34
2019-05-06T01:13:05.937Z,12.15
2019-05-06T03:37:23.847Z,10.33
2019-05-06T03:38:22.941Z,12.14
2019-05-06T03:39:23.253Z,12.99
2019-05-06T03:40:23.025Z,14.98
2019-05-06T03:41:26.082Z,15.64
2019-05-06T03:42:23.127Z,16.50
2019-05-06T03:43:23.260Z,16.41
2019-05-06T03:44:23.923Z,16.50
2019-05-06T03:45:23.716Z,17.26
2019-05-06T03:46:23.232Z,17.26
2019-05-06T03:47:23.485Z,16.88
2019-05-06T03:48:23.810Z,16.97
2019-05-06T03:49:23.841Z,16.97
2019-05-06T03:50:23.816Z,18.40
2019-05-06T03:51:23.359Z,18.87
2019-05-06T03:52:23.216Z,18.77
2019-05-06T03:53:23.253Z,20.10
2019-05-06T03:54:23.206Z,20.48
2019-05-06T03:55:23.470Z,19.34
2019-05-06T03:56:23.625Z,20.67
2019-05-06T03:57:23.170Z,22.00
2019-05-06T03:58:26.330Z,23.90
2019-05-06T03:59:23.291Z,21.05
2019-05-06T04:00:23.635Z,19.63
2019-05-06T04:01:23.647Z,18.02
2019-05-06T04:02:23.740Z,19.73
2019-05-06T04:03:24.655Z,19.82
2019-05-06T04:04:23.244Z,18.11
2019-05-06T04:05:23.543Z,17.92
2019-05-06T04:06:23.870Z,18.49
2019-05-06T04:07:23.140Z,16.88
2019-05-06T04:08:23.973Z,15.74
2019-05-06T04:09:23.796Z,16.69
2019-05-06T04:10:22.789Z,16.97
2019-05-06T04:11:22.912Z,17.73
2019-05-06T04:12:23.138Z,18.02
2019-05-06T04:13:23.062Z,17.45
2019-05-06T04:14:20.395Z,17.92
2019-05-06T04:15:22.964Z,16.31
2019-05-06T04:16:22.837Z,15.74
2019-05-06T04:17:23.030Z,15.74
2019-05-06T04:18:20.223Z,16.41
2019-05-06T04:19:20.178Z,16.60
2019-05-06T04:20:23.387Z,15.64
2019-05-06T04:21:23.669Z,16.41
2019-05-06T04:22:20.055Z,16.12
2019-05-06T04:23:23.175Z,15.36
2019-05-06T04:24:22.750Z,15.74
2019-05-06T04:25:19.923Z,15.74
2019-05-06T04:26:19.880Z,16.60
2019-05-06T04:27:22.220Z,17.07
2019-05-06T04:28:19.799Z,16.50
2019-05-06T04:29:19.753Z,16.69
2019-05-06T04:30:19.709Z,16.97
2019-05-06T04:31:22.689Z,17.26
2019-05-06T04:32:19.623Z,16.97
2019-05-06T04:33:19.581Z,16.97
2019-05-06T04:34:19.870Z,16.97
2019-05-06T04:35:19.500Z,16.97
2019-05-06T04:36:19.458Z,17.73
2019-05-06T04:37:19.415Z,18.11
2019-05-06T04:38:19.370Z,18.87
2019-05-06T04:39:19.325Z,19.06
2019-05-06T04:40:19.283Z,20.39
2019-05-06T04:41:19.242Z,21.15
2019-05-06T04:42:19.201Z,22.19
2019-05-06T04:43:19.162Z,23.34
2019-05-06T04:44:19.113Z,25.34
2019-05-06T04:45:19.069Z,26.57
2019-05-06T04:46:19.028Z,26.17
2019-05-06T04:47:18.992Z,26.28
2019-05-06T04:48:18.950Z,26.93
2019-05-06T04:49:18.904Z,28.45
2019-05-06T04:50:18.859Z,27.69
2019-05-06T04:51:18.815Z,28.56
2019-05-06T04:52:18.774Z,29.40
2019-05-06T04:53:18.731Z,29.87
2019-05-06T04:54:18.689Z,29.68
2019-05-06T04:55:18.650Z,30.44
2019-05-06T04:56:18.608Z,30.17
2019-05-06T04:57:18.563Z,30.74
2019-05-06T04:58:18.520Z,32.07
2019-05-06T04:59:18.476Z,33.50
2019-05-06T05:00:18.438Z,33.21
2019-05-06T05:01:18.405Z,33.50
2019-05-06T05:02:18.386Z,35.39
2019-05-06T05:03:18.309Z,37.19
2019-05-06T05:04:27.779Z,38.43
2019-05-06T05:05:18.223Z,38.71
2019-05-06T05:06:18.183Z,38.62
2019-05-06T05:07:18.143Z,38.90
2019-05-06T05:08:18.103Z,40.61
2019-05-06T05:09:18.056Z,40.42
2019-05-06T05:10:18.013Z,41.08
2019-05-06T05:11:17.969Z,41.85
2019-05-06T05:12:17.935Z,42.51
2019-05-06T05:13:17.888Z,43.08
2019-05-06T05:14:21.718Z,43.46
2019-05-06T05:15:17.805Z,42.89
2019-05-06T05:16:17.758Z,44.79
2019-05-06T05:17:17.718Z,44.50
2019-05-06T05:18:17.678Z,44.02
2019-05-06T05:19:17.639Z,43.74
2019-05-06T05:20:17.602Z,42.89
2019-05-06T05:21:17.550Z,42.22
2019-05-06T05:22:17.508Z,40.70
2019-05-06T05:23:17.470Z,38.14
2019-05-06T05:24:17.421Z,38.90
2019-05-06T05:25:17.416Z,39.66
2019-05-06T05:26:17.342Z,39.00
2019-05-06T05:27:17.301Z,39.66
2019-05-06T05:28:17.260Z,38.71
2019-05-06T05:29:17.214Z,37.29
2019-05-06T05:30:17.172Z,36.53
2019-05-06T05:31:17.129Z,36.34
2019-05-06T05:32:17.093Z,37.19
2019-05-06T05:33:17.047Z,37.29
2019-05-06T05:34:17.003Z,38.62
2019-05-06T05:35:16.961Z,38.53
2019-05-06T05:36:16.918Z,38.43
2019-05-06T05:37:16.879Z,40.14
2019-05-06T05:38:16.839Z,43.84
2019-05-06T05:39:16.801Z,42.41
2019-05-06T05:40:16.760Z,41.56
2019-05-06T05:41:16.713Z,43.17
2019-05-06T05:42:16.671Z,39.66
2019-05-06T05:43:16.626Z,39.37
2019-05-06T05:44:16.584Z,38.33
2019-05-06T05:45:16.544Z,37.86
2019-05-06T05:46:16.502Z,36.72
2019-05-06T05:47:16.463Z,37.67
2019-05-06T05:48:16.422Z,38.62
2019-05-06T05:49:18.478Z,38.33
2019-05-06T05:50:16.338Z,39.21
2019-05-06T05:51:16.295Z,40.52
2019-05-06T05:52:16.255Z,42.34
2019-05-06T05:53:16.209Z,44.71
2019-05-06T05:54:16.167Z,47.37
2019-05-06T05:55:16.124Z,48.61
2019-05-06T05:56:16.081Z,54.02
2019-05-06T05:57:16.041Z,52.97
2019-05-06T05:58:16.002Z,50.51
2019-05-06T05:59:15.963Z,55.06
2019-05-06T06:00:15.923Z,53.35
2019-05-06T06:01:15.876Z,52.40
2019-05-06T06:02:15.833Z,50.89
2019-05-06T06:03:15.790Z,50.22
2019-05-06T06:04:15.755Z,50.91
2019-05-06T06:05:15.710Z,51.86
2019-05-06T06:06:15.666Z,52.12
2019-05-06T06:07:15.624Z,56.29
2019-05-06T06:08:15.581Z,53.64
2019-05-06T06:09:15.541Z,54.87
2019-05-06T06:10:15.502Z,54.78
2019-05-06T06:11:15.462Z,53.64
2019-05-06T06:12:15.422Z,53.35
2019-05-06T06:13:15.377Z,54.78
2019-05-06T06:14:15.335Z,54.58
2019-05-06T06:15:15.317Z,56.10
2019-05-06T06:16:15.251Z,54.02
2019-05-06T06:17:15.212Z,51.74
2019-05-06T06:18:15.169Z,50.89
2019-05-06T06:19:15.131Z,49.39
2019-05-06T06:20:15.104Z,50.34
2019-05-06T06:21:21.955Z,50.70
2019-05-06T06:22:15.004Z,51.20
2019-05-06T06:23:14.988Z,50.05
2019-05-06T06:24:14.923Z,56.13
2019-05-06T06:25:14.880Z,59.46
2019-05-06T06:26:14.836Z,58.03
2019-05-06T06:27:14.795Z,58.39
2019-05-06T06:28:14.753Z,54.99
2019-05-06T06:29:14.711Z,53.19
2019-05-06T06:30:14.673Z,53.09
2019-05-06T06:31:14.633Z,57.37
2019-05-06T06:32:14.592Z,60.31
2019-05-06T06:33:14.548Z,59.93
2019-05-06T06:34:14.506Z,54.71
2019-05-06T06:35:14.677Z,57.84
2019-05-06T06:36:14.425Z,59.17
2019-05-06T06:37:14.385Z,60.13
2019-05-06T06:38:14.341Z,56.89
2019-05-06T06:39:14.299Z,70.29
2019-05-06T06:40:14.257Z,66.20
2019-05-06T06:41:14.217Z,62.31
2019-05-06T06:42:14.178Z,60.03
2019-05-06T06:43:14.139Z,62.31
2019-05-06T06:44:14.098Z,71.81
2019-05-06T06:45:14.054Z,72.85
2019-05-06T06:46:14.012Z,68.48
2019-05-06T06:47:13.969Z,64.97
2019-05-06T06:48:13.931Z,73.23
2019-05-06T06:49:13.888Z,72.38
2019-05-06T06:50:13.850Z,70.95
2019-05-06T06:51:13.819Z,68.39
2019-05-06T06:52:14.952Z,69.43
2019-05-06T06:53:13.725Z,64.59
2019-05-06T06:54:13.685Z,64.72
2019-05-06T06:55:13.646Z,71.04
2019-05-06T06:56:13.606Z,73.42
2019-05-06T06:57:13.567Z,74.18
2019-05-06T06:58:13.522Z,72.79
2019-05-06T06:59:13.479Z,73.93
2019-05-06T07:00:13.437Z,79.25
2019-05-06T07:01:13.398Z,84.06
2019-05-06T07:02:13.380Z,79.54
2019-05-06T07:03:13.320Z,77.55
2019-05-06T07:04:13.563Z,78.36
2019-05-06T07:05:24.335Z,74.79
2019-05-06T07:06:13.194Z,73.84
2019-05-06T07:07:13.225Z,74.69
2019-05-06T07:08:13.115Z,77.55
2019-05-06T07:09:13.073Z,79.35
2019-05-06T07:10:13.028Z,80.49
2019-05-06T07:11:13.105Z,82.10
2019-05-06T07:12:13.286Z,84.39
2019-05-06T07:13:12.908Z,83.82
2019-05-06T07:14:22.592Z,84.39
2019-05-06T07:16:17.283Z,84.39
2019-05-06T07:17:17.217Z,84.39
2019-05-06T07:18:17.171Z,85.43
2019-05-06T07:19:17.135Z,83.72
2019-05-06T07:20:17.097Z,84.86
2019-05-06T07:21:17.053Z,86.38
2019-05-06T07:22:17.019Z,84.67
2019-05-06T07:23:16.975Z,84.77
2019-05-06T07:24:16.927Z,84.10
2019-05-06T07:25:16.885Z,82.34
2019-05-06T07:26:16.846Z,88.52
2019-05-06T07:27:16.806Z,93.79
2019-05-06T07:28:16.772Z,92.37
2019-05-06T07:29:23.489Z,91.80
2019-05-06T07:30:16.687Z,88.47
2019-05-06T07:31:22.377Z,87.71
2019-05-06T07:32:16.603Z,92.66
2019-05-06T07:33:16.561Z,91.04
2019-05-06T07:34:16.524Z,88.28
2019-05-06T07:35:16.482Z,89.90
2019-05-06T07:36:16.443Z,95.41
2019-05-06T07:37:16.396Z,94.37
2019-05-06T07:38:16.357Z,95.41
2019-05-06T07:39:16.320Z,97.22
2019-05-06T07:40:16.278Z,95.89
2019-05-06T07:41:16.243Z,94.56
2019-05-06T07:42:16.198Z,94.74
2019-05-06T07:43:16.156Z,94.18
2019-05-06T07:44:16.115Z,92.85
2019-05-06T07:45:16.071Z,89.52
2019-05-06T07:46:16.036Z,92.46
2019-05-06T07:47:16.003Z,91.04
2019-05-06T07:48:15.953Z,91.42
2019-05-06T07:49:15.913Z,87.62
2019-05-06T07:50:15.869Z,87.34
2019-05-06T07:51:15.827Z,89.04
2019-05-06T07:52:17.305Z,92.46
2019-05-06T07:53:15.749Z,94.46
2019-05-06T07:54:15.713Z,94.18
2019-05-06T07:55:15.667Z,92.90
2019-05-06T07:56:15.624Z,90.99
2019-05-06T07:57:15.580Z,91.09
2019-05-06T07:58:15.540Z,91.85
2019-05-06T07:59:15.500Z,89.28
2019-05-06T08:00:15.462Z,90.61
2019-05-06T08:01:15.423Z,91.09
2019-05-06T08:02:15.382Z,89.00
2019-05-06T08:03:15.338Z,86.43
2019-05-06T08:04:15.296Z,83.25
2019-05-06T08:05:15.254Z,84.91
2019-05-06T08:06:15.218Z,89.09
2019-05-06T08:07:15.175Z,86.82
2019-05-06T08:08:15.133Z,85.96
2019-05-06T08:09:15.089Z,87.29
2019-05-06T08:10:15.051Z,87.38
2019-05-06T08:11:15.009Z,87.67
2019-05-06T08:12:14.970Z,83.49
2019-05-06T08:13:14.930Z,81.25
2019-05-06T08:14:14.891Z,82.45
2019-05-06T08:15:14.860Z,84.01
2019-05-06T08:16:14.804Z,81.16
2019-05-06T08:17:14.763Z,79.97
2019-05-06T08:18:14.721Z,79.06
2019-05-06T08:19:14.681Z,84.72
2019-05-06T08:20:14.642Z,86.53
2019-05-06T08:21:14.602Z,83.78
2019-05-06T08:22:14.556Z,84.53
2019-05-06T08:23:14.518Z,84.53
2019-05-06T08:24:14.478Z,82.45
2019-05-06T08:25:14.445Z,86.34
2019-05-06T08:26:17.559Z,82.64
2019-05-06T08:27:14.355Z,79.60
2019-05-06T08:28:14.314Z,79.12
2019-05-06T08:29:15.919Z,75.32
2019-05-06T08:30:14.265Z,78.69
2019-05-06T08:31:14.190Z,81.82
2019-05-06T08:32:14.156Z,82.20
2019-05-06T08:33:14.110Z,78.30
2019-05-06T08:34:14.073Z,78.88
2019-05-06T08:35:14.045Z,81.54
2019-05-06T08:36:15.006Z,79.44
2019-05-06T08:37:13.944Z,78.30
2019-05-06T08:38:13.906Z,78.40
2019-05-06T08:39:13.865Z,80.87
2019-05-06T08:40:13.823Z,79.63
2019-05-06T08:41:13.778Z,80.49
2019-05-06T08:42:13.743Z,80.34
2019-05-06T08:43:13.699Z,78.82
2019-05-06T08:44:13.660Z,79.96
2019-05-06T08:45:13.621Z,79.30
2019-05-06T08:46:13.579Z,82.81
2019-05-06T08:47:13.540Z,82.71
2019-05-06T08:48:13.496Z,90.61
2019-05-06T08:49:13.455Z,88.52
2019-05-06T08:50:13.415Z,86.24
2019-05-06T08:51:13.373Z,88.33
2019-05-06T08:52:13.338Z,91.37
2019-05-06T08:53:13.841Z,92.03
2019-05-06T08:54:13.434Z,95.08
2019-05-06T08:55:13.212Z,93.46
2019-05-06T08:56:16.157Z,94.13
2019-05-06T08:57:13.135Z,90.52
2019-05-06T08:58:13.966Z,88.42
2019-05-06T08:59:13.996Z,85.52
2019-05-06T09:00:13.012Z,91.66
2019-05-06T09:01:12.971Z,88.90
2019-05-06T09:02:13.765Z,91.56
2019-05-06T09:03:14.255Z,91.47
2019-05-06T09:04:15.965Z,87.76
2019-05-06T09:05:12.812Z,89.28
2019-05-06T09:06:26.561Z,89.94
2019-05-06T09:07:12.733Z,90.99
2019-05-06T09:08:13.743Z,89.75
2019-05-06T09:09:12.984Z,90.14
2019-05-06T09:10:13.177Z,90.56
2019-05-06T09:11:12.572Z,85.90
2019-05-06T09:12:13.067Z,91.03
2019-05-06T09:13:12.487Z,90.18
2019-05-06T09:14:13.656Z,90.28
2019-05-06T09:15:12.646Z,94.08
2019-05-06T09:16:13.015Z,91.80
2019-05-06T09:17:12.331Z,91.80
2019-05-06T09:18:12.478Z,93.60
2019-05-06T09:19:12.805Z,93.79
2019-05-06T09:20:13.006Z,95.75
2019-05-06T09:21:12.374Z,96.98
2019-05-06T09:22:12.912Z,94.98
2019-05-06T09:23:12.410Z,94.89
2019-05-06T09:24:12.807Z,96.89
2019-05-06T09:25:12.846Z,96.50
2019-05-06T09:26:12.913Z,96.41
2019-05-06T09:27:12.273Z,94.60
2019-05-06T09:28:13.158Z,93.65
2019-05-06T09:29:12.816Z,93.55
2019-05-06T09:30:13.178Z,93.84
2019-05-06T09:31:12.620Z,94.03
2019-05-06T09:32:13.777Z,93.94
2019-05-06T09:33:12.895Z,93.37
2019-05-06T09:34:13.012Z,97.08
2019-05-06T09:35:13.064Z,98.03
2019-05-06T09:36:12.728Z,99.45
2019-05-06T09:37:13.476Z,95.36
2019-05-06T09:50:55.617Z,94.27
2019-05-06T09:51:55.544Z,95.51
2019-05-06T09:52:55.496Z,95.89
2019-05-06T09:53:55.459Z,95.51
2019-05-06T09:54:55.414Z,94.93
2019-05-06T09:55:55.370Z,96.08
2019-05-06T09:56:55.331Z,98.36
2019-05-06T09:57:55.285Z,95.56
2019-05-06T09:58:55.257Z,96.60
2019-05-06T09:59:55.196Z,99.99
2019-05-06T10:00:55.159Z,98.46
2019-05-06T10:01:55.120Z,97.88
2019-05-06T10:02:55.071Z,97.13
2019-05-06T10:03:55.052Z,99.60
2019-05-06T10:04:54.988Z,98.83
2019-05-06T10:05:54.948Z,99.79
2019-05-06T10:06:59.804Z,99.12
2019-05-06T10:07:54.870Z,99.99
2019-05-06T10:08:54.834Z,99.99
2019-05-06T10:09:54.791Z,99.99
2019-05-06T10:10:59.482Z,99.99
2019-05-06T10:11:54.702Z,99.99
2019-05-06T10:12:54.661Z,99.99
2019-05-06T10:13:54.623Z,99.99
2019-05-06T10:14:54.583Z,99.99
2019-05-06T10:15:57.528Z,99.99
2019-05-06T10:16:54.497Z,99.99
2019-05-06T10:17:54.462Z,99.99
2019-05-06T10:18:54.429Z,99.99
2019-05-06T10:19:54.381Z,99.99
2019-05-06T10:20:54.340Z,99.99
2019-05-06T10:21:54.303Z,99.99
2019-05-06T10:22:54.255Z,99.99
2019-05-06T10:23:54.215Z,99.99
2019-05-06T10:24:54.175Z,99.99
2019-05-06T10:25:54.136Z,99.99
2019-05-06T10:26:54.097Z,99.99
2019-05-06T10:27:57.002Z,99.99
2019-05-06T10:28:54.018Z,99.99
2019-05-06T10:29:53.975Z,99.99
2019-05-06T10:30:53.947Z,99.99
2019-05-06T10:31:53.898Z,99.99
2019-05-06T10:32:53.857Z,99.99
2019-05-06T10:33:53.816Z,99.99
2019-05-06T10:34:53.774Z,99.99
2019-05-06T10:35:53.738Z,99.99
2019-05-06T10:36:53.688Z,99.99
2019-05-06T10:37:53.654Z,99.99
2019-05-06T10:38:53.618Z,99.99
2019-05-06T10:39:53.576Z,99.99
2019-05-06T10:41:02.844Z,99.99
2019-05-06T10:41:53.495Z,99.99
2019-05-06T10:42:53.450Z,99.99
2019-05-06T10:43:53.409Z,99.99
2019-05-06T10:44:53.380Z,99.99
2019-05-06T10:45:53.330Z,99.99
2019-05-06T10:46:53.323Z,99.99
2019-05-06T10:47:53.848Z,99.99
2019-05-06T10:48:53.225Z,99.99
2019-05-06T10:49:53.169Z,99.99
2019-05-06T10:50:53.131Z,99.99
2019-05-06T10:51:53.120Z,99.99
2019-05-06T10:52:53.052Z,99.99
2019-05-06T10:53:53.011Z,99.99
2019-05-06T10:54:52.970Z,99.99
2019-05-06T10:55:53.612Z,99.99
2019-05-06T10:56:57.078Z,99.99
2019-05-06T10:57:53.203Z,99.99
2019-05-06T10:58:52.913Z,99.99
2019-05-06T10:59:52.772Z,99.99
2019-05-06T11:00:52.955Z,99.99
2019-05-06T11:01:52.691Z,99.99
2019-05-06T11:02:52.648Z,99.99
2019-05-06T11:03:52.608Z,99.99
2019-05-06T11:04:52.991Z,99.99
2019-05-06T11:05:53.374Z,99.99
2019-05-06T11:06:52.660Z,99.99
2019-05-06T11:07:52.447Z,99.99
2019-05-06T11:08:52.596Z,99.99
2019-05-06T11:09:53.250Z,99.99
2019-05-06T11:10:53.528Z,99.99
2019-05-06T11:11:52.297Z,99.99
2019-05-06T11:12:52.384Z,99.99
2019-05-06T11:13:52.351Z,99.99
2019-05-06T11:14:53.158Z,99.99
2019-05-06T11:15:52.863Z,99.99
2019-05-06T11:16:52.090Z,99.99
2019-05-06T11:17:52.052Z,99.99
2019-05-06T11:18:53.494Z,99.99
2019-05-06T11:19:53.302Z,99.99
2019-05-06T11:20:52.987Z,99.99
2019-05-06T11:21:53.186Z,99.99
2019-05-06T11:22:52.825Z,99.99
2019-05-06T11:23:52.706Z,99.99
2019-05-06T11:24:51.780Z,99.99
2019-05-06T11:25:52.575Z,99.99
2019-05-06T11:26:53.345Z,99.99
2019-05-06T11:27:52.660Z,99.99
2019-05-06T11:28:52.082Z,99.99
2019-05-06T11:29:53.056Z,99.99
2019-05-06T11:30:52.986Z,99.99
2019-05-06T11:31:54.212Z,99.79
2019-05-06T11:32:54.461Z,99.99
2019-05-06T11:33:52.590Z,99.98
2019-05-06T11:34:52.611Z,99.99
2019-05-06T11:35:52.748Z,99.99
2019-05-06T11:36:52.445Z,99.99
2019-05-06T11:37:54.119Z,98.55
2019-05-06T11:38:52.266Z,98.55
2019-05-06T11:39:52.864Z,99.32
2019-05-06T11:40:52.835Z,99.98
2019-05-06T11:42:06.384Z,99.99
2019-05-06T11:42:52.513Z,99.99
2019-05-06T11:43:52.195Z,98.08
2019-05-06T11:44:52.888Z,96.84
2019-05-06T11:45:52.147Z,96.94
2019-05-06T11:46:52.319Z,93.51
2019-05-06T11:47:50.865Z,95.41
2019-05-06T11:48:52.303Z,93.70
2019-05-06T11:49:55.361Z,92.94
2019-05-06T11:50:50.751Z,92.32
2019-05-06T11:51:50.714Z,91.03
2019-05-06T11:52:53.084Z,90.17
2019-05-06T11:53:53.812Z,91.79
2019-05-06T11:54:52.690Z,91.94
2019-05-06T11:55:54.353Z,93.74
2019-05-06T11:56:55.121Z,92.27
2019-05-06T11:57:52.826Z,93.46
2019-05-06T11:58:52.889Z,92.03
2019-05-06T11:59:52.587Z,92.13
2019-05-06T12:00:52.581Z,92.03
2019-05-06T12:01:53.168Z,91.08
2019-05-06T12:02:50.282Z,91.84
2019-05-06T12:03:52.043Z,89.41
2019-05-06T12:04:52.327Z,92.32
2019-05-06T12:05:50.163Z,91.74
2019-05-06T12:06:52.424Z,92.84
2019-05-06T12:08:01.826Z,93.13
2019-05-06T12:08:52.259Z,92.94
2019-05-06T12:09:50.018Z,93.41
2019-05-06T12:10:51.539Z,93.89
2019-05-06T12:11:52.552Z,94.41
2019-05-06T12:12:49.885Z,93.41
2019-05-06T12:13:49.848Z,93.70
2019-05-06T12:14:52.476Z,94.46
2019-05-06T12:15:49.774Z,94.56
2019-05-06T12:16:49.740Z,93.79
2019-05-06T12:17:49.693Z,94.56
2019-05-06T12:18:49.651Z,93.98
2019-05-06T12:19:49.611Z,94.65
2019-05-06T12:20:49.573Z,95.32
2019-05-06T12:21:49.533Z,94.93
2019-05-06T12:22:49.498Z,96.27
2019-05-06T12:23:49.462Z,96.46
2019-05-06T12:24:49.416Z,97.41
2019-05-06T12:25:49.383Z,97.79
2019-05-06T12:26:49.338Z,97.70
2019-05-06T12:27:49.302Z,97.79
2019-05-06T12:28:49.263Z,98.27
2019-05-06T12:29:49.221Z,97.60
2019-05-06T12:30:49.179Z,97.60
2019-05-06T12:31:49.138Z,98.55
2019-05-06T12:32:49.099Z,99.69
2019-05-06T12:33:49.064Z,99.32
2019-05-06T12:34:49.025Z,99.79
2019-05-06T12:35:48.989Z,99.99
2019-05-06T12:36:48.948Z,99.99
2019-05-06T12:37:48.915Z,99.99
2019-05-06T12:38:48.868Z,99.99
2019-05-06T12:39:48.826Z,99.99
2019-05-06T12:40:48.789Z,99.99
2019-05-06T12:41:48.749Z,99.99
2019-05-06T12:42:48.707Z,99.99
2019-05-06T12:43:48.668Z,99.99
2019-05-06T12:44:48.627Z,99.99
2019-05-06T12:45:48.589Z,99.99
2019-05-06T12:46:48.555Z,99.99
2019-05-06T12:47:48.513Z,99.99
2019-05-06T12:48:48.474Z,99.99
2019-05-06T12:49:48.432Z,99.99
2019-05-06T12:50:48.398Z,99.99
2019-05-06T12:51:48.351Z,99.99
2019-05-06T12:52:48.312Z,99.99
2019-05-06T12:53:48.272Z,99.99
2019-05-06T12:54:48.245Z,99.99
2019-05-06T12:55:48.197Z,99.99
2019-05-06T12:56:48.150Z,99.99
2019-05-06T12:57:48.118Z,99.99
2019-05-06T12:58:48.074Z,99.99
2019-05-06T12:59:48.038Z,99.99
2019-05-06T13:00:48.000Z,99.99
2019-05-06T13:01:47.957Z,99.99
2019-05-06T13:02:47.917Z,99.99
2019-05-06T13:03:47.877Z,99.99
2019-05-06T13:04:56.047Z,99.99
2019-05-06T13:05:47.797Z,99.99
2019-05-06T13:06:47.757Z,99.99
2019-05-06T13:07:47.721Z,99.99
2019-05-06T13:08:58.568Z,99.99
2019-05-06T13:09:47.650Z,99.99
2019-05-06T13:10:47.598Z,99.99
2019-05-06T13:11:47.558Z,99.99
2019-05-06T13:12:47.521Z,99.99
2019-05-06T13:13:57.566Z,99.99
2019-05-06T13:14:48.260Z,99.99
2019-05-06T13:15:47.398Z,99.99
2019-05-06T13:16:47.364Z,99.99
2019-05-06T13:17:47.321Z,99.99
2019-05-06T13:18:48.665Z,99.99
2019-05-06T13:19:47.300Z,99.99
2019-05-06T13:20:50.573Z,99.99
2019-05-06T13:21:47.185Z,99.99
2019-05-06T13:22:47.181Z,99.99
2019-05-06T13:23:47.147Z,99.99
2019-05-06T13:24:47.087Z,99.99
2019-05-06T13:25:47.046Z,99.99
2019-05-06T13:26:46.977Z,99.99
2019-05-06T13:27:47.094Z,99.99
2019-05-06T13:28:46.882Z,99.99
2019-05-06T13:29:46.866Z,99.99
2019-05-06T13:30:46.807Z,99.99
2019-05-06T13:31:47.731Z,99.99
2019-05-06T13:32:49.284Z,99.99
2019-05-06T13:33:49.502Z,99.99
2019-05-06T13:34:46.699Z,99.99
2019-05-06T13:35:46.877Z,99.99
2019-05-06T13:36:46.729Z,99.99
2019-05-06T13:37:46.529Z,99.99
2019-05-06T13:38:46.501Z,99.99
2019-05-06T13:39:46.481Z,99.99
2019-05-06T13:40:53.816Z,99.99
2019-05-06T13:41:46.375Z,99.99
2019-05-06T13:42:46.377Z,99.99
2019-05-06T13:43:46.361Z,99.99
2019-05-06T13:44:46.264Z,99.99
2019-05-06T13:45:46.307Z,99.99
2019-05-06T13:46:46.198Z,99.99
2019-05-06T13:47:46.220Z,99.99
2019-05-06T13:48:46.093Z,99.99
2019-05-06T13:49:46.078Z,99.99
2019-05-06T13:50:46.029Z,99.99
2019-05-06T13:51:52.776Z,99.99
2019-05-06T13:52:48.210Z,99.99
2019-05-06T13:53:46.410Z,99.99
2019-05-06T13:54:45.932Z,99.99
2019-05-06T13:55:45.851Z,99.99
2019-05-06T13:56:48.782Z,99.99
2019-05-06T13:57:45.746Z,99.99
2019-05-06T13:58:45.836Z,99.99
2019-05-06T13:59:45.697Z,99.99
2019-05-06T14:00:45.673Z,99.99
2019-05-06T14:01:45.679Z,99.99
2019-05-06T14:02:45.643Z,99.99
2019-05-06T14:03:45.580Z,99.99
2019-05-06T14:04:45.473Z,99.99
2019-05-06T14:05:46.426Z,99.99
2019-05-06T14:06:45.414Z,99.99
2019-05-06T14:07:45.694Z,99.99
2019-05-06T14:08:45.328Z,99.99
2019-05-06T14:09:45.277Z,99.99
2019-05-06T14:10:56.474Z,99.99
2019-05-06T14:11:45.198Z,99.99
2019-05-06T14:12:45.169Z,99.99
2019-05-06T14:13:45.124Z,99.99
2019-05-06T14:14:45.086Z,99.99
2019-05-06T14:15:45.053Z,99.99
2019-05-06T14:16:45.007Z,99.99
2019-05-06T14:17:44.968Z,99.99
2019-05-06T14:18:44.939Z,99.99
2019-05-06T14:19:44.896Z,99.89
2019-05-06T14:20:44.841Z,96.27
2019-05-06T14:21:44.805Z,96.08
2019-05-06T14:22:44.782Z,97.89
2019-05-06T14:23:44.755Z,99.75
2019-05-06T14:24:44.695Z,99.46
2019-05-06T14:25:44.655Z,99.37
2019-05-06T14:26:44.978Z,99.27
2019-05-06T14:27:44.612Z,95.94
2019-05-06T14:28:44.533Z,95.27
2019-05-06T14:29:44.608Z,95.17
2019-05-06T14:30:44.476Z,93.74
2019-05-06T14:31:44.420Z,92.98
2019-05-06T14:32:44.389Z,95.41
2019-05-06T14:33:44.338Z,97.70
2019-05-06T14:34:44.310Z,98.85
2019-05-06T14:35:44.276Z,97.75
2019-05-06T14:36:44.276Z,98.32
2019-05-06T14:37:44.307Z,97.17
2019-05-06T14:38:44.146Z,93.60
2019-05-06T14:39:53.403Z,92.26
2019-05-06T14:40:44.288Z,95.12
2019-05-06T14:41:44.854Z,90.36
2019-05-06T14:42:54.237Z,88.35
2019-05-06T14:43:55.853Z,90.73
2019-05-06T14:44:43.933Z,87.02
2019-05-06T14:45:43.887Z,82.72
2019-05-06T14:46:43.955Z,82.01
2019-05-06T14:47:43.885Z,82.01
2019-05-06T14:48:43.840Z,81.92
2019-05-06T14:49:43.737Z,82.01
2019-05-06T14:50:48.424Z,80.30
2019-05-06T14:51:43.656Z,82.78
2019-05-06T14:52:43.757Z,87.87
2019-05-06T14:53:43.989Z,84.69
2019-05-06T14:54:43.554Z,84.06
2019-05-06T14:55:43.778Z,83.77
2019-05-06T14:56:43.500Z,86.30
2019-05-06T14:57:43.439Z,80.96
2019-05-06T14:58:43.460Z,82.78
2019-05-06T14:59:43.383Z,81.92
2019-05-06T15:00:44.313Z,80.30
2019-05-06T15:01:45.468Z,78.86
2019-05-06T15:02:43.400Z,79.21
2019-05-06T15:03:43.196Z,81.97
2019-05-06T15:04:43.609Z,82.83
2019-05-06T15:05:43.123Z,81.40
2019-05-06T15:06:43.085Z,81.88
2019-05-06T15:07:43.041Z,84.45
2019-05-06T15:09:55.782Z,82.26
2019-05-06T15:10:43.017Z,83.40
2019-05-06T15:11:43.436Z,83.40
2019-05-06T15:12:42.871Z,82.17
2019-05-06T15:13:42.860Z,80.68
2019-05-06T15:14:42.783Z,80.39
2019-05-06T15:15:43.061Z,82.30
2019-05-06T15:16:42.720Z,81.92
2019-05-06T15:17:43.173Z,83.25
2019-05-06T15:18:42.625Z,82.40
2019-05-06T15:19:42.838Z,82.68
2019-05-06T15:20:42.636Z,84.30
2019-05-06T15:21:42.901Z,84.59
2019-05-06T15:22:42.474Z,81.12
2019-05-06T15:36:32.745Z,91.46
2019-05-06T15:37:26.492Z,89.17
2019-05-06T15:38:26.447Z,90.50
2019-05-06T15:39:26.458Z,90.59
2019-05-06T15:40:32.376Z,87.54
2019-05-06T15:41:26.326Z,88.98
2019-05-06T15:42:26.287Z,88.69